Time;durP1;ratioP1;P1;durP2;ratioP2;P2;SDS_P1;SDS_P2;PMS_P1;PMS_P2;Temp;Humidity;BMP_temperature;BMP_pressure;BME280_temperature;BME280_humidity;BME280_pressure;Samples;Min_cycle;Max_cycle;Signal;HPM_P1;HPM_P2
2023/06/08 00:02:15;;;;;;;37.22;2.95;;;;;;;;;;5200997;22;20056;-83
2023/06/08 00:04:40;;;;;;;34.75;2.22;;;;;;;;;;5209362;22;20053;-83
2023/06/08 00:07:03;;;;;;;9.55;2.30;;;;;;;;;;5201167;22;20022;-83
2023/06/08 00:09:23;;;;;;;37.78;3.05;;;;;;;;;;5201051;22;20078;-83
2023/06/08 00:11:43;;;;;;;19.83;2.45;;;;;;;;;;5186637;22;20027;-83
2023/06/08 00:14:04;;;;;;;59.67;4.10;;;;;;;;;;5178163;22;20050;-83
2023/06/08 00:16:24;;;;;;;61.95;4.20;;;;;;;;;;5178296;22;20341;-83
2023/06/08 00:18:44;;;;;;;20.75;2.70;;;;;;;;;;5177976;22;20035;-83
2023/06/08 00:21:04;;;;;;;26.27;2.67;;;;;;;;;;5209320;22;20031;-83
2023/06/08 00:23:25;;;;;;;46.13;3.35;;;;;;;;;;5178175;22;20239;-83
2023/06/08 00:25:45;;;;;;;30.40;2.50;;;;;;;;;;5200837;22;20023;-83
2023/06/08 00:28:05;;;;;;;63.42;3.78;;;;;;;;;;5200705;22;20061;-84
2023/06/08 00:30:26;;;;;;;31.38;2.65;;;;;;;;;;5177992;22;20080;-83
2023/06/08 00:32:46;;;;;;;47.83;3.17;;;;;;;;;;5178060;22;20023;-83
2023/06/08 00:35:07;;;;;;;50.08;3.08;;;;;;;;;;5177924;22;20224;-83
2023/06/08 00:37:27;;;;;;;27.40;2.13;;;;;;;;;;5200737;22;20023;-83
2023/06/08 00:39:47;;;;;;;23.25;1.88;;;;;;;;;;5177960;22;20027;-83
2023/06/08 00:42:07;;;;;;;1.48;1.42;;;;;;;;;;5177865;22;20022;-84
2023/06/08 00:44:28;;;;;;;2.38;2.10;;;;;;;;;;5177983;22;20026;-84
2023/06/08 00:46:48;;;;;;;13.20;2.70;;;;;;;;;;5178102;22;20023;-84
2023/06/08 00:49:08;;;;;;;2.10;1.50;;;;;;;;;;5177926;22;20083;-84
2023/06/08 00:51:34;;;;;;;21.17;2.88;;;;;;;;;;5177788;22;20085;-84
2023/06/08 00:53:56;;;;;;;42.78;3.55;;;;;;;;;;5184033;22;20039;-84
2023/06/08 00:56:18;;;;;;;50.20;3.92;;;;;;;;;;5177885;22;20035;-84
2023/06/08 00:58:38;;;;;;;128.27;7.07;;;;;;;;;;5177522;22;20024;-83
2023/06/08 01:01:03;;;;;;;9.10;2.42;;;;;;;;;;5178293;22;20031;-87
2023/06/08 01:03:25;;;;;;;8.10;2.22;;;;;;;;;;5172826;22;20338;-61
2023/06/08 01:05:45;;;;;;;50.95;3.95;;;;;;;;;;5173394;23;20027;-61
2023/06/08 01:08:10;;;;;;;96.20;4.35;;;;;;;;;;5174946;23;20027;-62
2023/06/08 01:10:42;;;;;;;100.63;5.53;;;;;;;;;;5175999;23;20027;-62
2023/06/08 01:13:11;;;;;;;35.70;3.65;;;;;;;;;;5175830;23;20022;-62
2023/06/08 01:15:38;;;;;;;65.45;4.70;;;;;;;;;;5175787;23;20358;-61
2023/06/08 01:18:04;;;;;;;126.07;6.35;;;;;;;;;;5175629;23;20043;-61
2023/06/08 01:20:44;;;;;;;25.65;2.88;;;;;;;;;;5175795;23;20066;-61
2023/06/08 01:23:20;;;;;;;156.35;8.00;;;;;;;;;;5176019;23;20023;-61
2023/06/08 01:25:40;;;;;;;260.77;11.15;;;;;;;;;;5175811;23;20087;-61
2023/06/08 01:28:12;;;;;;;47.63;2.80;;;;;;;;;;5175904;23;20361;-61
2023/06/08 01:30:32;;;;;;;56.17;4.00;;;;;;;;;;5175775;23;20023;-61
2023/06/08 01:32:53;;;;;;;129.73;6.55;;;;;;;;;;5175840;23;20104;-61
2023/06/08 01:35:13;;;;;;;80.47;4.20;;;;;;;;;;5175982;23;20410;-61
2023/06/08 01:37:37;;;;;;;35.00;3.00;;;;;;;;;;5175638;23;20026;-61
2023/06/08 01:40:03;;;;;;;71.95;3.65;;;;;;;;;;5175722;23;20030;-61
2023/06/08 01:42:26;;;;;;;55.75;3.28;;;;;;;;;;5175977;23;20251;-61
2023/06/08 01:44:52;;;;;;;2.33;1.90;;;;;;;;;;5175889;23;20219;-61
2023/06/08 01:47:16;;;;;;;51.35;3.28;;;;;;;;;;5175519;23;20076;-61
2023/06/08 01:49:37;;;;;;;58.42;3.30;;;;;;;;;;5175747;23;20027;-61
2023/06/08 01:51:58;;;;;;;26.27;2.33;;;;;;;;;;5175929;23;20027;-61
2023/06/08 01:54:21;;;;;;;43.90;3.25;;;;;;;;;;5175806;23;20031;-61
2023/06/08 01:56:42;;;;;;;103.80;5.30;;;;;;;;;;5175713;23;20081;-61
2023/06/08 01:59:03;;;;;;;80.55;4.25;;;;;;;;;;5175747;23;20031;-62
2023/06/08 02:01:23;;;;;;;47.95;3.88;;;;;;;;;;5175720;23;20027;-61
2023/06/08 02:03:43;;;;;;;60.88;3.92;;;;;;;;;;5175644;23;20039;-62
2023/06/08 02:06:04;;;;;;;55.08;3.85;;;;;;;;;;5175923;23;20035;-61
2023/06/08 02:08:25;;;;;;;84.05;5.35;;;;;;;;;;5175815;23;20350;-61
2023/06/08 02:10:45;;;;;;;89.85;5.03;;;;;;;;;;5175562;23;20107;-61
2023/06/08 02:13:05;;;;;;;150.00;7.10;;;;;;;;;;5175685;23;20047;-61
2023/06/08 02:15:26;;;;;;;16.92;2.38;;;;;;;;;;5175839;23;20043;-61
2023/06/08 02:17:46;;;;;;;86.10;4.80;;;;;;;;;;5154457;23;20027;-61
2023/06/08 02:20:07;;;;;;;9.05;1.88;;;;;;;;;;5175041;23;20082;-61
2023/06/08 02:22:29;;;;;;;54.53;3.88;;;;;;;;;;5175860;23;20022;-61
2023/06/08 02:24:49;;;;;;;40.65;2.95;;;;;;;;;;5175688;23;20219;-61
2023/06/08 02:27:10;;;;;;;80.50;5.28;;;;;;;;;;5175500;23;20334;-61
2023/06/08 02:29:30;;;;;;;108.97;5.78;;;;;;;;;;5175711;23;20074;-61
2023/06/08 02:31:50;;;;;;;57.05;4.05;;;;;;;;;;5175622;23;20334;-61
2023/06/08 02:34:10;;;;;;;7.43;2.13;;;;;;;;;;5175489;23;20062;-61
2023/06/08 02:36:31;;;;;;;63.45;4.35;;;;;;;;;;5175649;23;20034;-61
2023/06/08 02:38:52;;;;;;;111.30;6.47;;;;;;;;;;5175585;23;20027;-61
2023/06/08 02:41:12;;;;;;;26.67;2.58;;;;;;;;;;5175369;23;20142;-61
2023/06/08 02:43:32;;;;;;;38.78;3.50;;;;;;;;;;5175547;23;20042;-61
2023/06/08 02:45:53;;;;;;;35.65;2.90;;;;;;;;;;5175629;23;20022;-61
2023/06/08 02:48:13;;;;;;;61.03;3.58;;;;;;;;;;5175533;23;20086;-61
2023/06/08 02:50:33;;;;;;;49.58;3.75;;;;;;;;;;5175503;23;20027;-61
2023/06/08 02:52:54;;;;;;;14.50;2.40;;;;;;;;;;5175652;23;20031;-61
2023/06/08 02:55:14;;;;;;;57.15;4.10;;;;;;;;;;5175434;23;20062;-61
2023/06/08 02:57:36;;;;;;;34.35;2.88;;;;;;;;;;5175383;23;20112;-61
2023/06/08 02:59:57;;;;;;;11.60;1.60;;;;;;;;;;5175577;23;20027;-62
2023/06/08 03:02:18;;;;;;;3.08;1.70;;;;;;;;;;5175611;23;20043;-62
2023/06/08 03:04:38;;;;;;;6.63;1.70;;;;;;;;;;5175408;23;20096;-62
2023/06/08 03:06:58;;;;;;;7.78;2.17;;;;;;;;;;5153153;23;20116;-62
2023/06/08 03:09:20;;;;;;;41.75;3.00;;;;;;;;;;5175586;23;20038;-62
2023/06/08 03:11:40;;;;;;;42.42;2.80;;;;;;;;;;5175295;23;20341;-63
2023/06/08 03:14:01;;;;;;;31.63;2.47;;;;;;;;;;5175713;23;20054;-62
2023/06/08 03:16:22;;;;;;;48.28;3.30;;;;;;;;;;5175590;23;20023;-61
2023/06/08 03:18:44;;;;;;;63.55;3.60;;;;;;;;;;5175280;23;20058;-62
2023/06/08 03:21:07;;;;;;;110.72;5.45;;;;;;;;;;5175309;23;20047;-62
2023/06/08 03:23:29;;;;;;;6.80;2.17;;;;;;;;;;5175640;23;20027;-62
2023/06/08 03:25:51;;;;;;;48.50;3.08;;;;;;;;;;5175530;23;20090;-62
2023/06/08 03:28:12;;;;;;;19.52;2.20;;;;;;;;;;5175249;23;20028;-62
2023/06/08 03:30:32;;;;;;;1.70;1.70;;;;;;;;;;5175455;23;20066;-62
2023/06/08 03:32:52;;;;;;;4.30;1.60;;;;;;;;;;5163514;23;20043;-62
2023/06/08 03:35:13;;;;;;;2.97;1.70;;;;;;;;;;5175242;23;20043;-62
2023/06/08 03:37:33;;;;;;;2.10;2.10;;;;;;;;;;5175392;23;20023;-63
2023/06/08 03:39:53;;;;;;;12.85;2.22;;;;;;;;;;5175354;23;20058;-62
2023/06/08 03:42:13;;;;;;;1.77;1.67;;;;;;;;;;5175275;23;20058;-62
2023/06/08 03:44:34;;;;;;;1.40;1.40;;;;;;;;;;5175258;23;20134;-62
2023/06/08 03:46:54;;;;;;;60.03;4.13;;;;;;;;;;5175393;23;20023;-62
2023/06/08 03:49:15;;;;;;;4.10;1.50;;;;;;;;;;5175247;23;20023;-63
2023/06/08 03:51:35;;;;;;;15.75;2.15;;;;;;;;;;5175127;23;20119;-62
2023/06/08 03:53:55;;;;;;;1.20;1.20;;;;;;;;;;5173518;23;20031;-63
2023/06/08 03:56:16;;;;;;;14.98;1.80;;;;;;;;;;5175240;23;20266;-63
2023/06/08 03:58:37;;;;;;;2.78;1.40;;;;;;;;;;5175063;23;20023;-63
2023/06/08 04:00:57;;;;;;;71.32;3.47;;;;;;;;;;5175330;23;20035;-61
2023/06/08 04:03:17;;;;;;;89.22;4.60;;;;;;;;;;5175244;23;20023;-63
2023/06/08 04:05:38;;;;;;;76.55;3.72;;;;;;;;;;5175057;23;20027;-62
2023/06/08 04:08:02;;;;;;;3.60;1.77;;;;;;;;;;5175137;23;20294;-63
2023/06/08 04:10:22;;;;;;;10.63;1.95;;;;;;;;;;5175206;23;20031;-63
2023/06/08 04:12:42;;;;;;;4.10;1.70;;;;;;;;;;5175029;23;20027;-63
2023/06/08 04:15:03;;;;;;;39.25;2.97;;;;;;;;;;5175105;23;20058;-63
2023/06/08 04:17:24;;;;;;;45.80;3.05;;;;;;;;;;5175194;23;20024;-63
2023/06/08 04:19:44;;;;;;;2.22;1.67;;;;;;;;;;5174896;23;20027;-63
2023/06/08 04:22:04;;;;;;;42.92;3.72;;;;;;;;;;5174969;23;20030;-63
2023/06/08 04:24:25;;;;;;;57.80;4.28;;;;;;;;;;5175097;23;20026;-63
2023/06/08 04:26:46;;;;;;;23.92;2.45;;;;;;;;;;5175090;23;20043;-63
2023/06/08 04:29:07;;;;;;;40.08;3.47;;;;;;;;;;5174819;23;20076;-62
2023/06/08 04:31:28;;;;;;;44.85;2.80;;;;;;;;;;5175077;23;20115;-62
2023/06/08 04:33:48;;;;;;;67.88;4.13;;;;;;;;;;5174986;23;20031;-62
2023/06/08 04:36:08;;;;;;;20.48;2.13;;;;;;;;;;5174788;23;20055;-63
2023/06/08 04:38:28;;;;;;;32.47;2.85;;;;;;;;;;5174781;23;20063;-63
2023/06/08 04:40:53;;;;;;;1.73;1.73;;;;;;;;;;5175051;23;20031;-63
2023/06/08 04:43:17;;;;;;;41.13;3.65;;;;;;;;;;5175142;23;20031;-63
2023/06/08 04:45:38;;;;;;;24.73;2.65;;;;;;;;;;5175896;23;20031;-63
2023/06/08 04:47:59;;;;;;;20.55;2.97;;;;;;;;;;5176119;23;20023;-63
2023/06/08 04:50:19;;;;;;;28.95;2.90;;;;;;;;;;5175995;23;20050;-63
2023/06/08 04:52:45;;;;;;;2.80;2.25;;;;;;;;;;5175781;23;20023;-63
2023/06/08 04:55:06;;;;;;;2.58;2.35;;;;;;;;;;5175936;23;20406;-63
2023/06/08 04:57:27;;;;;;;31.15;3.50;;;;;;;;;;5176031;23;20254;-62
2023/06/08 04:59:48;;;;;;;77.95;5.82;;;;;;;;;;5175825;23;20023;-62
2023/06/08 05:02:08;;;;;;;143.55;8.18;;;;;;;;;;5176474;23;20023;-63
2023/06/08 05:04:28;;;;;;;125.30;7.60;;;;;;;;;;5176656;23;20023;-63
2023/06/08 05:06:48;;;;;;;6.03;2.03;;;;;;;;;;5176473;23;20046;-63
2023/06/08 05:09:09;;;;;;;8.27;2.30;;;;;;;;;;5176453;23;20250;-63
2023/06/08 05:11:29;;;;;;;30.02;3.13;;;;;;;;;;5176639;23;20047;-63
2023/06/08 05:13:50;;;;;;;25.70;2.92;;;;;;;;;;5176555;23;20245;-63
2023/06/08 05:16:10;;;;;;;27.27;3.10;;;;;;;;;;5176760;23;20027;-62
2023/06/08 05:18:31;;;;;;;192.55;10.80;;;;;;;;;;5176386;23;20024;-57
2023/06/08 05:20:51;;;;;;;106.75;7.43;;;;;;;;;;5176535;23;20062;-58
2023/06/08 05:23:11;;;;;;;106.78;6.25;;;;;;;;;;5176323;23;20023;-59
2023/06/08 05:25:36;;;;;;;50.80;4.22;;;;;;;;;;5176455;23;20391;-58
2023/06/08 05:27:57;;;;;;;42.80;3.92;;;;;;;;;;5176562;23;20211;-57
2023/06/08 05:30:17;;;;;;;10.60;2.78;;;;;;;;;;5176369;23;20431;-57
2023/06/08 05:32:37;;;;;;;20.25;2.58;;;;;;;;;;5176341;23;20223;-58
2023/06/08 05:35:00;;;;;;;11.77;2.20;;;;;;;;;;5176582;23;20043;-57
2023/06/08 05:37:20;;;;;;;20.42;3.53;;;;;;;;;;5176536;23;20039;-57
2023/06/08 05:39:41;;;;;;;5.45;2.22;;;;;;;;;;5176236;23;20027;-58
2023/06/08 05:42:01;;;;;;;8.48;2.25;;;;;;;;;;5176500;23;20059;-58
2023/06/08 05:44:22;;;;;;;2.83;2.65;;;;;;;;;;5176514;23;20342;-58
2023/06/08 05:46:42;;;;;;;2.78;2.20;;;;;;;;;;5176298;23;20023;-57
2023/06/08 05:49:02;;;;;;;8.63;2.58;;;;;;;;;;5176360;23;20083;-58
2023/06/08 05:51:22;;;;;;;4.15;2.22;;;;;;;;;;5176388;23;20066;-58
2023/06/08 05:53:43;;;;;;;3.60;2.63;;;;;;;;;;5176162;23;20059;-58
2023/06/08 05:56:04;;;;;;;2.63;2.22;;;;;;;;;;5175977;23;20035;-57
2023/06/08 05:58:27;;;;;;;2.30;2.20;;;;;;;;;;5176336;23;20247;-58
2023/06/08 06:01:04;;;;;;;2.60;2.50;;;;;;;;;;5176383;23;20026;-58
2023/06/08 06:03:24;;;;;;;2.67;2.47;;;;;;;;;;5176292;23;20071;-58
2023/06/08 06:05:45;;;;;;;60.63;4.57;;;;;;;;;;5176254;23;20026;-58
2023/06/08 06:08:05;;;;;;;20.50;3.85;;;;;;;;;;5176346;23;20239;-57
2023/06/08 06:10:26;;;;;;;14.80;3.58;;;;;;;;;;5176269;23;20231;-57
2023/06/08 06:12:47;;;;;;;2.72;2.72;;;;;;;;;;5176277;23;20212;-58
2023/06/08 06:15:08;;;;;;;3.70;2.45;;;;;;;;;;5176426;23;20034;-58
2023/06/08 06:17:28;;;;;;;2.45;2.45;;;;;;;;;;5176305;23;20023;-58
2023/06/08 06:19:49;;;;;;;32.15;4.00;;;;;;;;;;5176078;23;20054;-57
2023/06/08 06:22:10;;;;;;;7.22;2.20;;;;;;;;;;5176300;23;20026;-58
2023/06/08 06:24:30;;;;;;;3.05;2.40;;;;;;;;;;5176302;23;20415;-57
2023/06/08 06:26:51;;;;;;;4.95;2.90;;;;;;;;;;5176174;23;20039;-58
2023/06/08 06:29:11;;;;;;;29.15;3.60;;;;;;;;;;5176258;23;20023;-57
2023/06/08 06:31:32;;;;;;;2.75;2.63;;;;;;;;;;5176233;23;20027;-58
2023/06/08 06:33:52;;;;;;;3.25;3.00;;;;;;;;;;5176192;23;20207;-57
2023/06/08 06:36:12;;;;;;;4.80;3.58;;;;;;;;;;5176150;23;20042;-58
2023/06/08 06:38:32;;;;;;;2.72;2.63;;;;;;;;;;5176106;23;20075;-58
2023/06/08 06:40:53;;;;;;;5.65;3.20;;;;;;;;;;5176040;23;20027;-58
2023/06/08 06:43:13;;;;;;;3.05;3.03;;;;;;;;;;5176148;23;20050;-58
2023/06/08 06:45:34;;;;;;;3.13;2.88;;;;;;;;;;5176263;23;20407;-58
2023/06/08 06:47:55;;;;;;;3.00;2.90;;;;;;;;;;5176273;23;20206;-59
2023/06/08 06:50:15;;;;;;;2.67;2.58;;;;;;;;;;5176187;23;20091;-58
2023/06/08 06:52:36;;;;;;;2.65;2.65;;;;;;;;;;5176204;23;20280;-57
2023/06/08 06:54:56;;;;;;;3.15;2.92;;;;;;;;;;5176151;23;20091;-58
2023/06/08 06:57:16;;;;;;;2.83;2.47;;;;;;;;;;5176116;23;20022;-58
2023/06/08 06:59:37;;;;;;;2.88;2.67;;;;;;;;;;5176030;23;20111;-58
2023/06/08 07:01:57;;;;;;;2.80;2.60;;;;;;;;;;5176207;23;20023;-58
2023/06/08 07:04:19;;;;;;;2.25;2.08;;;;;;;;;;5176222;23;20031;-58
2023/06/08 07:06:42;;;;;;;2.20;2.10;;;;;;;;;;5175716;23;20070;-58
2023/06/08 07:09:04;;;;;;;2.42;2.33;;;;;;;;;;5184588;23;20031;-58
2023/06/08 07:11:24;;;;;;;2.00;1.85;;;;;;;;;;5166985;23;20071;-58
2023/06/08 07:13:48;;;;;;;2.13;2.08;;;;;;;;;;5176138;23;20264;-58
2023/06/08 07:16:09;;;;;;;1.77;1.73;;;;;;;;;;5175860;23;20027;-59
2023/06/08 07:18:30;;;;;;;2.08;2.08;;;;;;;;;;5176001;23;20026;-58
2023/06/08 07:20:50;;;;;;;1.50;1.50;;;;;;;;;;5176103;23;20081;-58
2023/06/08 07:23:11;;;;;;;1.95;1.95;;;;;;;;;;5176060;23;20023;-58
2023/06/08 07:25:41;;;;;;;2.10;2.00;;;;;;;;;;5176086;23;20027;-59
2023/06/08 07:28:21;;;;;;;2.53;2.15;;;;;;;;;;5176006;23;20062;-59
2023/06/08 07:30:41;;;;;;;2.45;1.80;;;;;;;;;;5175958;23;20207;-59
2023/06/08 07:33:01;;;;;;;1.50;1.50;;;;;;;;;;5175992;23;20072;-59
2023/06/08 07:35:22;;;;;;;2.05;1.65;;;;;;;;;;5176062;23;20057;-58
2023/06/08 07:37:42;;;;;;;1.73;1.73;;;;;;;;;;5175941;23;20070;-58
2023/06/08 07:40:10;;;;;;;1.40;1.40;;;;;;;;;;5175738;23;20261;-58
2023/06/08 07:42:31;;;;;;;1.40;1.40;;;;;;;;;;5175962;23;20074;-59
2023/06/08 07:44:51;;;;;;;1.77;1.77;;;;;;;;;;5176017;23;20215;-59
2023/06/08 07:47:11;;;;;;;2.38;2.00;;;;;;;;;;5163937;23;20076;-59
2023/06/08 07:49:31;;;;;;;1.80;1.73;;;;;;;;;;5175792;23;20023;-58
2023/06/08 07:51:52;;;;;;;1.23;1.20;;;;;;;;;;5175984;23;20027;-59
2023/06/08 07:54:13;;;;;;;4.97;1.50;;;;;;;;;;5175891;23;20023;-59
2023/06/08 07:56:34;;;;;;;1.58;1.10;;;;;;;;;;5175807;23;20027;-59
2023/06/08 07:58:54;;;;;;;1.10;1.10;;;;;;;;;;5175784;23;20023;-59
2023/06/08 08:01:16;;;;;;;1.50;1.40;;;;;;;;;;5175810;23;20027;-59
2023/06/08 08:03:37;;;;;;;1.20;1.10;;;;;;;;;;5175813;23;20373;-59
2023/06/08 08:05:58;;;;;;;1.77;1.27;;;;;;;;;;5175851;23;20275;-59
2023/06/08 08:08:18;;;;;;;2.88;1.23;;;;;;;;;;5175838;23;20202;-59
2023/06/08 08:10:38;;;;;;;1.10;1.10;;;;;;;;;;5175762;23;20027;-59
2023/06/08 08:12:59;;;;;;;1.10;1.10;;;;;;;;;;5175819;23;20023;-59
2023/06/08 08:15:19;;;;;;;1.20;1.20;;;;;;;;;;5175731;23;20027;-59
2023/06/08 08:17:40;;;;;;;1.20;1.20;;;;;;;;;;5175829;23;20022;-59
2023/06/08 08:20:01;;;;;;;1.35;1.10;;;;;;;;;;5176556;23;20022;-59
2023/06/08 08:22:22;;;;;;;1.38;1.10;;;;;;;;;;5176759;23;20027;-59
2023/06/08 08:24:42;;;;;;;1.00;1.00;;;;;;;;;;5176760;23;20035;-59
2023/06/08 08:27:03;;;;;;;1.00;1.00;;;;;;;;;;5176677;23;20303;-59
2023/06/08 08:29:23;;;;;;;1.10;1.10;;;;;;;;;;5176681;23;20242;-59
2023/06/08 08:31:44;;;;;;;1.50;0.90;;;;;;;;;;5176656;23;20027;-59
2023/06/08 08:34:04;;;;;;;0.90;0.90;;;;;;;;;;5176643;23;20023;-59
2023/06/08 08:36:25;;;;;;;1.23;1.23;;;;;;;;;;5176586;23;20104;-59
2023/06/08 08:38:46;;;;;;;0.93;0.93;;;;;;;;;;5176519;23;20047;-58
2023/06/08 08:41:08;;;;;;;2.35;0.90;;;;;;;;;;5176594;23;20066;-59
2023/06/08 08:43:48;;;;;;;1.08;1.08;;;;;;;;;;5176645;23;20092;-59
2023/06/08 08:46:11;;;;;;;1.05;1.00;;;;;;;;;;5176667;23;20027;-59
2023/06/08 08:48:32;;;;;;;1.15;0.80;;;;;;;;;;5176647;23;20062;-60
2023/06/08 08:50:57;;;;;;;0.90;0.90;;;;;;;;;;5176599;23;20107;-59
2023/06/08 08:53:17;;;;;;;0.90;0.90;;;;;;;;;;5176557;23;20027;-59
2023/06/08 08:55:41;;;;;;;1.67;0.90;;;;;;;;;;5176640;23;20083;-59
2023/06/08 08:58:01;;;;;;;0.90;0.90;;;;;;;;;;5176725;23;20026;-58
2023/06/08 09:00:22;;;;;;;1.00;1.00;;;;;;;;;;5176497;23;20027;-59
2023/06/08 09:02:43;;;;;;;0.80;0.80;;;;;;;;;;5176495;23;20027;-59
2023/06/08 09:05:03;;;;;;;0.80;0.80;;;;;;;;;;5176615;23;20381;-59
2023/06/08 09:07:24;;;;;;;0.82;0.82;;;;;;;;;;5155558;23;20027;-59
2023/06/08 09:10:04;;;;;;;0.80;0.80;;;;;;;;;;5176440;23;20047;-59
2023/06/08 09:12:25;;;;;;;1.60;0.90;;;;;;;;;;5176472;23;20079;-58
2023/06/08 09:15:12;;;;;;;1.83;0.80;;;;;;;;;;5176612;23;20070;-59
2023/06/08 09:17:37;;;;;;;0.80;0.80;;;;;;;;;;5176509;23;20135;-59
2023/06/08 09:19:58;;;;;;;0.93;0.80;;;;;;;;;;5176461;23;20031;-59
2023/06/08 09:22:28;;;;;;;0.80;0.80;;;;;;;;;;5176506;23;20023;-59
2023/06/08 09:24:51;;;;;;;1.30;1.17;;;;;;;;;;5176429;23;20043;-59
2023/06/08 09:27:24;;;;;;;1.48;0.90;;;;;;;;;;5176568;23;20038;-59
2023/06/08 09:29:44;;;;;;;0.80;0.80;;;;;;;;;;5153252;23;20023;-58
2023/06/08 09:32:13;;;;;;;0.80;0.80;;;;;;;;;;5176392;23;20023;-59
2023/06/08 09:34:55;;;;;;;1.67;1.00;;;;;;;;;;5156151;23;20022;-58
2023/06/08 09:37:15;;;;;;;0.70;0.70;;;;;;;;;;5176383;23;20082;-58
2023/06/08 09:39:43;;;;;;;1.27;0.80;;;;;;;;;;5176381;23;20026;-58
2023/06/08 09:42:05;;;;;;;0.80;0.80;;;;;;;;;;5176525;23;20023;-59
2023/06/08 09:44:27;;;;;;;0.80;0.80;;;;;;;;;;5176382;23;20027;-59
2023/06/08 09:46:48;;;;;;;0.80;0.80;;;;;;;;;;5176443;23;20023;-59
2023/06/08 09:49:11;;;;;;;0.75;0.75;;;;;;;;;;5176552;23;20022;-58
2023/06/08 09:51:31;;;;;;;;;;;;;;;;;;5176782;23;20234;-59
2023/06/08 09:53:56;;;;;;;0.80;0.80;;;;;;;;;;5176374;23;19918;-58
2023/06/08 09:56:16;;;;;;;2.15;0.80;;;;;;;;;;5174437;23;20058;-59
2023/06/08 09:58:38;;;;;;;0.85;0.70;;;;;;;;;;5176309;23;20098;-59
2023/06/08 10:01:02;;;;;;;0.80;0.80;;;;;;;;;;5176226;23;20058;-59
2023/06/08 10:03:28;;;;;;;1.23;0.80;;;;;;;;;;5176257;23;20085;-59
2023/06/08 10:05:49;;;;;;;0.70;0.70;;;;;;;;;;5176472;23;20357;-59
2023/06/08 10:08:12;;;;;;;2.00;1.80;;;;;;;;;;5176270;23;20023;-59
2023/06/08 10:10:35;;;;;;;0.80;0.80;;;;;;;;;;5176078;23;20023;-59
2023/06/08 10:12:57;;;;;;;0.80;0.80;;;;;;;;;;5176358;23;20042;-59
2023/06/08 10:15:19;;;;;;;2.85;0.80;;;;;;;;;;5176189;23;20026;-59
2023/06/08 10:17:39;;;;;;;1.40;0.80;;;;;;;;;;5176167;23;20055;-59
2023/06/08 10:20:00;;;;;;;0.80;0.80;;;;;;;;;;5176217;23;20027;-59
2023/06/08 10:22:20;;;;;;;0.90;0.90;;;;;;;;;;5176327;23;20023;-60
2023/06/08 10:24:41;;;;;;;0.70;0.70;;;;;;;;;;5176217;23;20027;-59
2023/06/08 10:27:25;;;;;;;0.88;0.77;;;;;;;;;;5176142;23;20211;-59
2023/06/08 10:29:54;;;;;;;0.80;0.80;;;;;;;;;;5176236;23;20051;-59
2023/06/08 10:32:14;;;;;;;0.70;0.70;;;;;;;;;;5176373;23;20334;-60
2023/06/08 10:34:39;;;;;;;0.80;0.80;;;;;;;;;;5176320;23;20234;-59
2023/06/08 10:37:01;;;;;;;0.70;0.70;;;;;;;;;;5176130;23;20094;-59
2023/06/08 10:39:21;;;;;;;0.70;0.70;;;;;;;;;;5176153;23;20063;-59
2023/06/08 10:41:46;;;;;;;1.60;0.80;;;;;;;;;;5175762;23;20067;-59
2023/06/08 10:44:06;;;;;;;0.73;0.73;;;;;;;;;;5176169;23;20115;-59
2023/06/08 10:46:43;;;;;;;0.70;0.70;;;;;;;;;;5176097;23;20095;-59
2023/06/08 10:49:04;;;;;;;0.82;0.70;;;;;;;;;;5176170;23;20026;-59
2023/06/08 10:51:24;;;;;;;1.33;0.70;;;;;;;;;;5176363;23;20023;-59
2023/06/08 10:53:58;;;;;;;0.80;0.80;;;;;;;;;;5176086;23;20030;-59
2023/06/08 10:56:18;;;;;;;0.70;0.70;;;;;;;;;;5176011;23;20088;-59
2023/06/08 10:58:51;;;;;;;0.70;0.70;;;;;;;;;;5176102;23;20023;-60
2023/06/08 11:01:12;;;;;;;0.73;0.60;;;;;;;;;;5176380;23;20027;-59
2023/06/08 11:04:00;;;;;;;0.70;0.70;;;;;;;;;;5176109;23;20023;-59
2023/06/08 11:06:29;;;;;;;0.70;0.70;;;;;;;;;;5176127;23;20027;-59
2023/06/08 11:08:49;;;;;;;0.80;0.80;;;;;;;;;;5175963;23;20031;-59
2023/06/08 11:11:11;;;;;;;0.80;0.80;;;;;;;;;;5176289;23;20039;-59
2023/06/08 11:13:31;;;;;;;0.73;0.70;;;;;;;;;;5176224;23;20051;-59
2023/06/08 11:15:52;;;;;;;0.77;0.77;;;;;;;;;;5175995;23;20090;-59
2023/06/08 11:18:13;;;;;;;1.15;0.60;;;;;;;;;;5157225;23;20027;-59
2023/06/08 11:20:33;;;;;;;0.65;0.65;;;;;;;;;;5176225;23;20353;-59
2023/06/08 11:22:54;;;;;;;0.70;0.70;;;;;;;;;;5176041;23;20062;-59
2023/06/08 11:25:18;;;;;;;0.90;0.90;;;;;;;;;;5175957;23;20027;-58
2023/06/08 11:27:44;;;;;;;1.00;0.60;;;;;;;;;;5176182;23;20051;-58
2023/06/08 11:30:05;;;;;;;0.60;0.60;;;;;;;;;;5176080;23;20062;-59
2023/06/08 11:32:26;;;;;;;0.90;0.70;;;;;;;;;;5175932;23;20027;-59
2023/06/08 11:34:49;;;;;;;0.60;0.60;;;;;;;;;;5176057;23;20365;-59
2023/06/08 11:37:16;;;;;;;0.70;0.70;;;;;;;;;;5176109;23;20059;-59
2023/06/08 11:39:42;;;;;;;3.13;0.85;;;;;;;;;;5175854;23;20023;-59
2023/06/08 11:42:03;;;;;;;0.63;0.60;;;;;;;;;;5175844;23;20098;-59
2023/06/08 11:44:26;;;;;;;0.57;0.57;;;;;;;;;;5176096;23;20342;-59
2023/06/08 11:46:46;;;;;;;0.60;0.60;;;;;;;;;;5176104;23;20027;-58
2023/06/08 11:49:08;;;;;;;0.60;0.60;;;;;;;;;;5175874;23;20061;-58
2023/06/08 11:51:29;;;;;;;0.60;0.60;;;;;;;;;;5176006;23;20038;-59
2023/06/08 11:53:51;;;;;;;0.63;0.60;;;;;;;;;;5176090;23;20030;-58
2023/06/08 11:56:12;;;;;;;0.60;0.60;;;;;;;;;;5154777;23;20264;-59
2023/06/08 11:58:36;;;;;;;0.50;0.50;;;;;;;;;;5175743;23;20043;-59
2023/06/08 12:01:07;;;;;;;1.40;0.70;;;;;;;;;;5176008;23;20103;-58
2023/06/08 12:03:32;;;;;;;0.60;0.60;;;;;;;;;;5175954;23;20059;-58
2023/06/08 12:05:58;;;;;;;0.60;0.60;;;;;;;;;;5161899;23;20219;-59
2023/06/08 12:08:19;;;;;;;0.60;0.60;;;;;;;;;;5175683;23;20038;-58
2023/06/08 12:10:41;;;;;;;1.92;0.60;;;;;;;;;;5175943;23;20066;-58
2023/06/08 12:13:01;;;;;;;;;;;;;;;;;;5176380;23;20084;-59
2023/06/08 12:15:22;;;;;;;0.60;0.60;;;;;;;;;;5175674;23;19927;-58
2023/06/08 12:17:46;;;;;;;0.60;0.60;;;;;;;;;;5175874;23;20050;-59
2023/06/08 12:20:08;;;;;;;0.60;0.60;;;;;;;;;;5175781;23;20024;-59
2023/06/08 12:22:28;;;;;;;0.60;0.60;;;;;;;;;;5175555;23;20023;-59
2023/06/08 12:24:49;;;;;;;0.95;0.70;;;;;;;;;;5175518;23;20367;-58
2023/06/08 12:27:09;;;;;;;0.60;0.60;;;;;;;;;;5175793;23;20023;-58
2023/06/08 12:29:29;;;;;;;0.60;0.60;;;;;;;;;;5175644;23;20329;-58
2023/06/08 12:31:50;;;;;;;1.40;0.60;;;;;;;;;;5175477;23;20030;-58
2023/06/08 12:34:10;;;;;;;1.15;0.70;;;;;;;;;;5175655;23;20023;-58
2023/06/08 12:36:31;;;;;;;1.77;0.70;;;;;;;;;;5175634;23;20082;-58
2023/06/08 12:38:51;;;;;;;0.70;0.60;;;;;;;;;;5175312;23;20086;-58
2023/06/08 12:41:12;;;;;;;0.70;0.70;;;;;;;;;;5175884;23;20027;-59
2023/06/08 12:43:32;;;;;;;0.60;0.60;;;;;;;;;;5175694;23;20027;-58
2023/06/08 12:45:53;;;;;;;1.10;0.63;;;;;;;;;;5175349;23;20027;-58
2023/06/08 12:48:14;;;;;;;1.58;0.60;;;;;;;;;;5175547;23;20090;-57
2023/06/08 12:50:34;;;;;;;0.60;0.60;;;;;;;;;;5175653;23;20027;-57
2023/06/08 12:52:55;;;;;;;0.60;0.60;;;;;;;;;;5175399;23;20066;-57
2023/06/08 12:55:17;;;;;;;0.60;0.60;;;;;;;;;;5175492;23;20054;-57
2023/06/08 12:57:38;;;;;;;0.60;0.60;;;;;;;;;;5184083;23;20211;-57
2023/06/08 12:59:58;;;;;;;0.60;0.60;;;;;;;;;;5175320;23;20026;-57
2023/06/08 13:02:19;;;;;;;0.70;0.70;;;;;;;;;;5175344;23;20211;-57
2023/06/08 13:04:39;;;;;;;1.58;0.70;;;;;;;;;;5165712;23;20063;-57
2023/06/08 13:07:00;;;;;;;2.17;0.60;;;;;;;;;;5176647;23;20023;-58
2023/06/08 13:09:20;;;;;;;1.10;1.00;;;;;;;;;;5176448;23;20023;-58
2023/06/08 13:11:40;;;;;;;0.60;0.60;;;;;;;;;;5169500;23;20047;-58
2023/06/08 13:14:01;;;;;;;0.63;0.63;;;;;;;;;;5176697;23;20066;-57
2023/06/08 13:16:21;;;;;;;0.60;0.60;;;;;;;;;;5176441;23;20085;-57
2023/06/08 13:18:42;;;;;;;0.65;0.65;;;;;;;;;;5176457;23;20031;-58
2023/06/08 13:21:03;;;;;;;0.60;0.60;;;;;;;;;;5176619;23;20027;-57
2023/06/08 13:23:24;;;;;;;0.60;0.60;;;;;;;;;;5176421;23;20293;-58
2023/06/08 13:25:45;;;;;;;1.45;0.60;;;;;;;;;;5176545;23;20378;-57
2023/06/08 13:28:08;;;;;;;0.60;0.60;;;;;;;;;;5176700;23;20071;-58
2023/06/08 13:30:29;;;;;;;0.60;0.60;;;;;;;;;;5176534;23;20024;-58
2023/06/08 13:32:51;;;;;;;0.95;0.60;;;;;;;;;;5176344;23;20349;-57
2023/06/08 13:35:12;;;;;;;0.95;0.60;;;;;;;;;;5176528;23;20129;-57
2023/06/08 13:37:32;;;;;;;0.60;0.60;;;;;;;;;;5176575;23;20058;-57
2023/06/08 13:39:53;;;;;;;0.70;0.70;;;;;;;;;;5176282;23;20195;-58
2023/06/08 13:42:14;;;;;;;0.70;0.70;;;;;;;;;;5176466;23;20203;-58
2023/06/08 13:44:34;;;;;;;0.70;0.70;;;;;;;;;;5176520;23;20027;-58
2023/06/08 13:46:54;;;;;;;0.60;0.60;;;;;;;;;;5176326;23;20031;-58
2023/06/08 13:49:14;;;;;;;3.05;0.70;;;;;;;;;;5176347;23;20260;-58
2023/06/08 13:51:36;;;;;;;0.60;0.60;;;;;;;;;;5176528;23;20076;-57
2023/06/08 13:53:56;;;;;;;0.70;0.70;;;;;;;;;;5176377;23;20023;-57
2023/06/08 13:56:17;;;;;;;0.60;0.60;;;;;;;;;;5176322;23;20043;-57
2023/06/08 13:58:37;;;;;;;0.60;0.60;;;;;;;;;;5176386;23;20402;-57
2023/06/08 14:00:57;;;;;;;0.60;0.60;;;;;;;;;;5176380;23;20027;-57
2023/06/08 14:03:18;;;;;;;0.60;0.60;;;;;;;;;;5176175;23;20247;-57
2023/06/08 14:05:38;;;;;;;0.60;0.60;;;;;;;;;;5176494;23;20026;-57
2023/06/08 14:07:59;;;;;;;0.60;0.60;;;;;;;;;;5176372;23;20361;-57